createdAt,value
2019-04-11T00:00:07.044Z,0.00
2019-04-11T00:01:08.012Z,0.00
2019-04-11T00:02:06.990Z,0.00
2019-04-11T00:03:07.096Z,0.00
2019-04-11T00:04:08.145Z,0.00
2019-04-11T00:05:06.828Z,0.00
2019-04-11T00:06:07.527Z,0.00
2019-04-11T00:07:07.837Z,0.00
2019-04-11T00:08:07.908Z,0.00
2019-04-11T00:09:06.648Z,0.00
2019-04-11T00:10:06.599Z,0.00
2019-04-11T00:11:06.555Z,0.00
2019-04-11T00:12:06.517Z,0.00
2019-04-11T00:13:18.248Z,0.00
2019-04-11T00:14:07.362Z,0.00
2019-04-11T00:15:06.476Z,0.00
2019-04-11T00:16:06.876Z,0.00
2019-04-11T00:17:06.293Z,0.00
2019-04-11T00:18:06.290Z,0.00
2019-04-11T00:19:07.256Z,0.00
2019-04-11T00:20:06.152Z,0.00
2019-04-11T00:21:06.788Z,0.00
2019-04-11T00:22:06.061Z,0.00
2019-04-11T00:23:06.150Z,0.00
2019-04-11T00:24:07.082Z,0.00
2019-04-11T00:25:05.936Z,0.00
2019-04-11T00:26:06.553Z,0.00
2019-04-11T00:27:05.852Z,0.00
2019-04-11T00:28:05.828Z,0.00
2019-04-11T00:29:05.975Z,0.00
2019-04-11T00:30:06.001Z,0.00
2019-04-11T00:31:06.365Z,0.00
2019-04-11T00:32:08.024Z,0.00
2019-04-11T00:33:05.755Z,0.00
2019-04-11T00:34:06.730Z,0.00
2019-04-11T00:35:05.482Z,0.00
2019-04-11T00:36:06.294Z,0.00
2019-04-11T00:37:05.402Z,0.00
2019-04-11T00:38:05.546Z,0.00
2019-04-11T00:39:05.581Z,0.00
2019-04-11T00:40:05.281Z,0.00
2019-04-11T00:41:05.852Z,0.00
2019-04-11T00:42:06.101Z,0.00
2019-04-11T00:43:05.250Z,0.00
2019-04-11T00:44:06.242Z,0.00
2019-04-11T00:45:05.437Z,0.00
2019-04-11T00:46:04.989Z,0.00
2019-04-11T00:47:04.939Z,0.00
2019-04-11T00:48:05.819Z,0.00
2019-04-11T00:49:04.858Z,0.00
2019-04-11T00:50:05.608Z,0.00
2019-04-11T00:51:04.794Z,0.00
2019-04-11T00:52:04.719Z,0.00
2019-04-11T00:53:05.569Z,0.00
2019-04-11T00:54:04.790Z,0.00
2019-04-11T00:55:05.061Z,0.00
2019-04-11T00:56:04.570Z,0.00
2019-04-11T00:57:04.499Z,0.00
2019-04-11T00:58:05.434Z,0.00
2019-04-11T00:59:04.407Z,0.00
2019-04-11T01:00:04.858Z,0.00
2019-04-11T01:01:04.341Z,0.00
2019-04-11T01:02:05.146Z,0.00
2019-04-11T01:03:07.184Z,0.00
2019-04-11T01:04:04.426Z,0.00
2019-04-11T01:05:05.373Z,0.00
2019-04-11T01:06:04.111Z,0.00
2019-04-11T01:07:04.770Z,0.00
2019-04-11T01:08:05.137Z,0.00
2019-04-11T01:09:04.152Z,0.00
2019-04-11T01:10:04.420Z,0.00
2019-04-11T01:11:03.895Z,0.00
2019-04-11T01:12:04.649Z,0.00
2019-04-11T01:13:04.965Z,0.00
2019-04-11T01:14:03.741Z,0.00
2019-04-11T01:15:04.906Z,0.00
2019-04-11T01:16:04.924Z,0.00
2019-04-11T01:17:03.624Z,0.00
2019-04-11T01:18:03.652Z,0.00
2019-04-11T01:19:04.563Z,0.00
2019-04-11T01:20:03.462Z,0.00
2019-04-11T01:21:04.045Z,0.00
2019-04-11T01:22:03.399Z,0.00
2019-04-11T01:23:03.329Z,0.00
2019-04-11T01:24:03.809Z,0.00
2019-04-11T01:25:04.163Z,0.00
2019-04-11T01:26:03.285Z,0.00
2019-04-11T01:27:03.170Z,0.00
2019-04-11T01:28:03.133Z,0.00
2019-04-11T01:29:03.086Z,0.00
2019-04-11T01:30:04.004Z,0.00
2019-04-11T01:31:03.114Z,0.00
2019-04-11T01:32:02.915Z,0.00
2019-04-11T01:33:02.870Z,0.00
2019-04-11T01:34:02.865Z,0.00
2019-04-11T01:35:02.808Z,0.00
2019-04-11T01:36:02.803Z,0.00
2019-04-11T01:37:03.713Z,0.00
2019-04-11T01:38:02.674Z,0.00
2019-04-11T01:39:03.093Z,0.00
2019-04-11T01:40:02.571Z,0.00
2019-04-11T01:41:02.550Z,0.00
2019-04-11T01:42:02.747Z,0.00
2019-04-11T01:43:02.452Z,0.00
2019-04-11T01:44:05.500Z,0.00
2019-04-11T01:45:03.218Z,0.00
2019-04-11T01:46:02.298Z,0.00
2019-04-11T01:47:02.533Z,0.00
2019-04-11T01:48:02.221Z,0.00
2019-04-11T01:49:02.294Z,0.00
2019-04-11T01:50:03.084Z,0.00
2019-04-11T01:51:02.288Z,0.00
2019-04-11T01:52:02.230Z,0.00
2019-04-11T01:53:02.611Z,0.00
2019-04-11T01:54:01.930Z,0.00
2019-04-11T01:55:02.085Z,0.00
2019-04-11T01:56:02.800Z,0.00
2019-04-11T01:57:01.787Z,0.00
2019-04-11T01:58:02.546Z,0.00
2019-04-11T01:59:02.692Z,0.00
2019-04-11T02:00:02.013Z,0.00
2019-04-11T02:01:01.612Z,0.00
2019-04-11T02:02:01.586Z,0.00
2019-04-11T02:03:01.520Z,0.00
2019-04-11T02:04:01.626Z,0.00
2019-04-11T02:05:01.454Z,0.00
2019-04-11T02:06:01.378Z,0.00
2019-04-11T02:07:02.436Z,0.00
2019-04-11T02:08:01.286Z,0.00
2019-04-11T02:09:01.937Z,0.00
2019-04-11T02:10:02.386Z,0.00
2019-04-11T02:11:01.403Z,0.00
2019-04-11T02:12:01.679Z,0.00
2019-04-11T02:13:01.750Z,0.00
2019-04-11T02:14:10.447Z,0.00
2019-04-11T02:15:00.976Z,0.00
2019-04-11T02:16:01.423Z,0.00
2019-04-11T02:17:01.247Z,0.00
2019-04-11T02:18:01.336Z,0.00
2019-04-11T02:19:01.655Z,0.00
2019-04-11T02:21:33.764Z,0.00
2019-04-11T02:22:34.725Z,0.00
2019-04-11T02:23:33.647Z,0.00
2019-04-11T02:24:34.163Z,0.00
2019-04-11T02:25:33.587Z,0.00
2019-04-11T02:26:33.633Z,0.00
2019-04-11T02:27:33.548Z,0.00
2019-04-11T02:28:33.438Z,0.00
2019-04-11T02:29:33.390Z,0.00
2019-04-11T02:30:33.900Z,0.00
2019-04-11T02:31:34.801Z,0.00
2019-04-11T02:32:34.383Z,0.00
2019-04-11T02:33:34.720Z,0.00
2019-04-11T02:34:33.150Z,0.00
2019-04-11T02:35:33.116Z,0.00
2019-04-11T02:36:34.117Z,0.00
2019-04-11T02:37:34.336Z,0.00
2019-04-11T02:38:34.704Z,0.00
2019-04-11T02:39:34.886Z,0.00
2019-04-11T02:40:32.932Z,0.00
2019-04-11T02:41:35.144Z,0.00
2019-04-11T02:42:33.036Z,0.00
2019-04-11T02:43:34.276Z,0.00
2019-04-11T02:44:51.062Z,0.00
2019-04-11T02:45:46.759Z,0.00
2019-04-11T02:46:42.526Z,0.00
2019-04-11T02:47:35.231Z,0.00
2019-04-11T02:48:33.180Z,0.00
2019-04-11T02:49:33.052Z,0.00
2019-04-11T02:50:34.288Z,0.00
2019-04-11T02:51:32.367Z,0.00
2019-04-11T02:52:33.547Z,0.00
2019-04-11T02:53:34.200Z,0.00
2019-04-11T02:54:33.469Z,0.00
2019-04-11T02:55:33.459Z,0.00
2019-04-11T02:56:33.466Z,0.00
2019-04-11T02:57:32.368Z,0.00
2019-04-11T02:58:32.063Z,0.00
2019-04-11T02:59:32.032Z,0.00
2019-04-11T03:00:33.637Z,0.00
2019-04-11T03:01:32.576Z,0.00
2019-04-11T03:02:32.715Z,0.00
2019-04-11T03:03:32.486Z,0.00
2019-04-11T03:04:31.857Z,0.00
2019-04-11T03:05:34.514Z,0.00
2019-04-11T03:06:33.266Z,0.00
2019-04-11T03:07:32.001Z,0.00
2019-04-11T03:08:34.181Z,0.00
2019-04-11T03:09:31.837Z,0.00
2019-04-11T03:10:33.527Z,0.00
2019-04-11T03:11:32.544Z,0.00
2019-04-11T03:12:31.931Z,0.00
2019-04-11T03:13:33.171Z,0.00
2019-04-11T03:14:46.132Z,0.00
2019-04-11T03:15:43.184Z,0.00
2019-04-11T03:16:42.771Z,0.00
2019-04-11T03:17:35.880Z,0.00
2019-04-11T03:18:45.975Z,0.00
2019-04-11T03:19:43.920Z,0.00
2019-04-11T03:20:38.441Z,0.00
2019-04-11T03:21:33.591Z,0.00
2019-04-11T03:22:32.200Z,0.00
2019-04-11T03:23:31.184Z,0.00
2019-04-11T03:24:31.817Z,0.00
2019-04-11T03:25:32.559Z,0.00
2019-04-11T03:26:31.080Z,0.00
2019-04-11T03:27:32.386Z,0.00
2019-04-11T03:28:33.008Z,0.00
2019-04-11T03:29:31.482Z,0.00
2019-04-11T03:30:48.869Z,0.00
2019-04-11T03:32:13.575Z,0.00
2019-04-11T03:33:17.324Z,0.00
2019-04-11T03:37:14.756Z,0.00
2019-04-11T03:37:56.654Z,0.00
2019-04-11T03:38:56.967Z,0.00
2019-04-11T03:39:54.264Z,0.00
2019-04-11T03:40:44.957Z,0.00
2019-04-11T03:41:50.800Z,0.00
2019-04-11T03:42:43.172Z,0.00
2019-04-11T03:43:41.833Z,0.00
2019-04-11T03:44:36.838Z,0.00
2019-04-11T03:45:47.933Z,0.00
2019-04-11T03:46:47.731Z,0.00
2019-04-11T03:47:41.258Z,0.00
2019-04-11T03:48:45.014Z,0.00
2019-04-11T03:49:39.903Z,0.00
2019-04-11T03:50:32.189Z,0.00
2019-04-11T03:51:29.793Z,0.00
2019-04-11T03:52:30.529Z,0.00
2019-04-11T03:53:30.068Z,0.00
2019-04-11T03:54:29.571Z,0.00
2019-04-11T03:55:30.755Z,0.00
2019-04-11T03:56:29.462Z,0.00
2019-04-11T03:57:29.884Z,0.00
2019-04-11T03:58:31.005Z,0.00
2019-04-11T03:59:31.230Z,0.00
2019-04-11T04:00:34.049Z,0.00
2019-04-11T04:01:29.635Z,0.00
2019-04-11T04:02:30.612Z,0.00
2019-04-11T04:03:30.895Z,0.00
2019-04-11T04:04:29.189Z,0.00
2019-04-11T04:05:32.241Z,0.00
2019-04-11T04:06:30.635Z,0.00
2019-04-11T04:07:29.680Z,0.00
2019-04-11T04:08:29.811Z,0.00
2019-04-11T04:09:29.530Z,0.00
2019-04-11T04:10:29.611Z,0.00
2019-04-11T04:11:31.604Z,0.00
2019-04-11T04:12:29.400Z,0.00
2019-04-11T04:13:31.636Z,0.00
2019-04-11T04:14:29.048Z,0.00
2019-04-11T04:15:39.178Z,0.00
2019-04-11T04:16:35.900Z,0.00
2019-04-11T04:17:28.449Z,0.00
2019-04-11T04:18:29.736Z,0.00
2019-04-11T04:19:30.195Z,0.00
2019-04-11T04:20:29.011Z,0.00
2019-04-11T04:21:28.790Z,0.00
2019-04-11T04:22:29.395Z,0.00
2019-04-11T04:23:29.461Z,0.00
2019-04-11T04:24:32.229Z,0.00
2019-04-11T04:25:28.567Z,0.00
2019-04-11T04:26:29.251Z,0.00
2019-04-11T04:27:28.169Z,0.00
2019-04-11T04:28:29.441Z,0.00
2019-04-11T04:29:29.403Z,0.00
2019-04-11T04:30:38.537Z,0.00
2019-04-11T04:31:38.414Z,0.00
2019-04-11T04:32:28.130Z,0.00
2019-04-11T04:33:29.297Z,0.00
2019-04-11T04:34:36.729Z,0.00
2019-04-11T04:35:38.584Z,5.63
2019-04-11T04:36:28.978Z,5.63
2019-04-11T04:37:29.438Z,5.63
2019-04-11T04:38:38.688Z,5.63
2019-04-11T04:39:37.696Z,5.63
2019-04-11T04:40:53.796Z,5.63
2019-04-11T04:41:37.369Z,11.25
2019-04-11T04:42:32.298Z,11.25
2019-04-11T04:43:28.028Z,11.25
2019-04-11T04:44:27.219Z,11.25
2019-04-11T04:45:27.666Z,16.88
2019-04-11T04:46:43.565Z,16.88
2019-04-11T04:47:38.540Z,16.88
2019-04-11T04:48:29.355Z,16.88
2019-04-11T04:49:28.207Z,22.50
2019-04-11T04:50:28.528Z,22.50
2019-04-11T04:51:26.901Z,22.50
2019-04-11T04:52:28.050Z,28.13
2019-04-11T04:53:28.370Z,28.13
2019-04-11T04:54:28.305Z,33.75
2019-04-11T04:55:28.563Z,33.75
2019-04-11T04:56:31.100Z,39.38
2019-04-11T04:57:26.878Z,39.38
2019-04-11T04:58:26.620Z,39.38
2019-04-11T04:59:28.090Z,45.00
2019-04-11T05:00:28.001Z,45.00
2019-04-11T05:01:26.794Z,50.63
2019-04-11T05:02:28.131Z,50.63
2019-04-11T05:03:26.732Z,56.25
2019-04-11T05:04:27.549Z,61.88
2019-04-11T05:05:27.214Z,61.88
2019-04-11T05:06:26.301Z,67.50
2019-04-11T05:07:29.275Z,67.50
2019-04-11T05:08:27.145Z,73.13
2019-04-11T05:09:26.182Z,73.13
2019-04-11T05:10:26.358Z,78.75
2019-04-11T05:11:26.328Z,78.75
2019-04-11T05:12:26.234Z,84.38
2019-04-11T05:13:25.855Z,90.00
2019-04-11T05:14:27.334Z,90.00
2019-04-11T05:15:26.114Z,95.63
2019-04-11T05:16:25.725Z,101.25
2019-04-11T05:17:28.145Z,101.25
2019-04-11T05:18:25.886Z,106.88
2019-04-11T05:19:25.612Z,106.88
2019-04-11T05:20:25.562Z,112.50
2019-04-11T05:21:25.522Z,118.13
2019-04-11T05:22:26.649Z,118.13
2019-04-11T05:23:25.562Z,123.75
2019-04-11T05:24:26.345Z,123.75
2019-04-11T05:25:26.297Z,129.38
2019-04-11T05:26:25.677Z,135.00
2019-04-11T05:27:25.219Z,135.00
2019-04-11T05:28:25.501Z,140.63
2019-04-11T05:29:25.139Z,146.25
2019-04-11T05:30:25.273Z,146.25
2019-04-11T05:31:25.058Z,151.88
2019-04-11T05:32:27.161Z,151.88
2019-04-11T05:33:25.324Z,157.50
2019-04-11T05:34:25.815Z,163.13
2019-04-11T05:35:24.962Z,163.13
2019-04-11T05:36:24.837Z,168.75
2019-04-11T05:37:24.962Z,174.38
2019-04-11T05:38:25.260Z,180.00
2019-04-11T05:39:25.523Z,185.63
2019-04-11T05:40:25.892Z,191.25
2019-04-11T05:41:25.104Z,196.88
2019-04-11T05:42:26.983Z,213.75
2019-04-11T05:43:27.965Z,236.25
2019-04-11T05:44:25.108Z,281.25
2019-04-11T05:45:25.996Z,309.38
2019-04-11T05:46:33.528Z,326.25
2019-04-11T05:47:25.517Z,337.50
2019-04-11T05:48:25.943Z,343.13
2019-04-11T05:49:24.237Z,348.75
2019-04-11T05:50:24.381Z,348.75
2019-04-11T05:51:25.238Z,354.38
2019-04-11T05:52:24.170Z,365.63
2019-04-11T05:53:24.924Z,376.88
2019-04-11T05:54:24.004Z,382.50
2019-04-11T05:55:23.972Z,388.13
2019-04-11T05:56:23.924Z,393.75
2019-04-11T05:57:27.878Z,399.38
2019-04-11T05:58:24.134Z,410.63
2019-04-11T05:59:24.404Z,421.88
2019-04-11T06:00:23.735Z,427.50
2019-04-11T06:01:24.386Z,438.75
2019-04-11T06:02:24.845Z,444.38
2019-04-11T06:03:23.911Z,450.00
2019-04-11T06:04:26.707Z,450.00
2019-04-11T06:05:24.511Z,455.63
2019-04-11T06:06:24.579Z,461.25
2019-04-11T06:07:23.459Z,466.88
2019-04-11T06:08:27.210Z,478.13
2019-04-11T06:09:23.409Z,483.75
2019-04-11T06:10:24.106Z,489.38
2019-04-11T06:11:24.176Z,500.63
2019-04-11T06:12:23.364Z,506.25
2019-04-11T06:13:23.209Z,511.88
2019-04-11T06:14:23.147Z,517.50
2019-04-11T06:15:23.098Z,523.13
2019-04-11T06:16:35.677Z,534.38
2019-04-11T06:17:23.899Z,540.00
2019-04-11T06:18:30.541Z,545.63
2019-04-11T06:19:22.987Z,551.25
2019-04-11T06:20:25.113Z,556.88
2019-04-11T06:21:23.969Z,562.50
2019-04-11T06:22:23.511Z,562.50
2019-04-11T06:23:23.474Z,579.38
2019-04-11T06:24:23.769Z,585.00
2019-04-11T06:25:23.480Z,596.25
2019-04-11T06:26:23.014Z,596.25
2019-04-11T06:27:22.680Z,601.88
2019-04-11T06:28:22.584Z,613.13
2019-04-11T06:29:26.220Z,618.75
2019-04-11T06:30:22.860Z,630.00
2019-04-11T06:31:24.537Z,624.38
2019-04-11T06:32:23.497Z,635.63
2019-04-11T06:33:22.708Z,658.13
2019-04-11T06:34:24.125Z,652.50
2019-04-11T06:35:22.315Z,658.13
2019-04-11T06:36:23.321Z,669.38
2019-04-11T06:37:22.384Z,680.63
2019-04-11T06:38:22.678Z,697.50
2019-04-11T06:39:23.045Z,697.50
2019-04-11T06:40:22.896Z,697.50
2019-04-11T06:41:22.187Z,708.75
2019-04-11T06:42:24.467Z,703.13
2019-04-11T06:43:22.008Z,714.38
2019-04-11T06:44:21.959Z,725.63
2019-04-11T06:45:21.898Z,725.63
2019-04-11T06:46:21.871Z,742.50
2019-04-11T06:47:22.902Z,748.13
2019-04-11T06:48:23.122Z,759.38
2019-04-11T06:49:22.485Z,776.25
2019-04-11T06:50:22.894Z,787.50
2019-04-11T06:51:21.999Z,810.00
2019-04-11T06:52:21.627Z,826.88
2019-04-11T06:53:21.576Z,849.38
2019-04-11T06:54:21.565Z,871.88
2019-04-11T06:55:22.440Z,888.75
2019-04-11T06:56:21.691Z,933.75
2019-04-11T06:57:21.645Z,978.75
2019-04-11T06:58:21.524Z,995.63
2019-04-11T06:59:21.570Z,984.38
2019-04-11T07:00:21.573Z,1091.25
2019-04-11T07:01:22.318Z,1293.75
2019-04-11T07:02:23.282Z,1518.75
2019-04-11T07:03:25.491Z,1575.00
2019-04-11T07:04:21.814Z,1552.50
2019-04-11T07:05:21.169Z,1417.50
2019-04-11T07:06:21.742Z,1389.38
2019-04-11T07:07:21.061Z,1395.00
2019-04-11T07:08:22.269Z,1518.75
2019-04-11T07:09:22.192Z,1366.88
2019-04-11T07:10:21.964Z,1226.25
2019-04-11T07:11:20.867Z,1260.00
2019-04-11T07:12:20.823Z,1530.00
2019-04-11T07:13:20.784Z,1704.38
2019-04-11T07:14:20.771Z,1501.88
2019-04-11T07:15:20.901Z,1496.25
2019-04-11T07:16:21.863Z,1552.50
2019-04-11T07:17:21.113Z,1614.38
2019-04-11T07:18:20.618Z,1828.13
2019-04-11T07:19:20.555Z,1732.50
2019-04-11T07:20:20.784Z,1507.50
2019-04-11T07:21:21.233Z,1524.38
2019-04-11T07:22:20.953Z,1563.75
2019-04-11T07:23:20.395Z,1822.50
2019-04-11T07:24:20.363Z,1974.38
2019-04-11T07:25:20.362Z,1783.13
2019-04-11T07:26:20.894Z,1625.63
2019-04-11T07:27:20.255Z,1901.25
2019-04-11T07:28:20.228Z,2053.13
2019-04-11T07:29:20.181Z,1816.88
2019-04-11T07:30:22.758Z,1620.00
2019-04-11T07:31:21.308Z,1479.38
2019-04-11T07:32:20.304Z,1350.00
2019-04-11T07:33:20.224Z,1316.25
2019-04-11T07:34:21.193Z,1293.75
2019-04-11T07:35:19.972Z,1260.00
2019-04-11T07:36:21.017Z,1231.88
2019-04-11T07:37:21.233Z,1175.63
2019-04-11T07:38:20.985Z,1102.50
2019-04-11T07:39:20.177Z,1091.25
2019-04-11T07:40:19.788Z,1063.13
2019-04-11T07:41:19.727Z,1051.88
2019-04-11T07:42:20.933Z,1051.88
2019-04-11T07:43:19.656Z,1063.13
2019-04-11T07:44:19.672Z,1063.13
2019-04-11T07:45:19.571Z,1091.25
2019-04-11T07:46:19.564Z,1108.13
2019-04-11T07:47:23.194Z,1113.75
2019-04-11T07:48:19.472Z,1141.88
2019-04-11T07:49:19.908Z,1130.63
2019-04-11T07:50:19.887Z,1158.75
2019-04-11T07:51:19.686Z,1209.38
2019-04-11T07:52:20.172Z,1226.25
2019-04-11T07:53:19.731Z,1226.25
2019-04-11T07:54:20.331Z,1237.50
2019-04-11T07:55:19.245Z,1237.50
2019-04-11T07:56:19.192Z,1226.25
2019-04-11T07:57:19.392Z,1198.13
2019-04-11T07:58:19.416Z,1158.75
2019-04-11T07:59:19.575Z,1158.75
2019-04-11T08:00:20.472Z,1158.75
2019-04-11T08:01:19.071Z,1181.25
2019-04-11T08:02:18.970Z,1198.13
2019-04-11T08:03:19.187Z,1192.50
2019-04-11T08:04:19.458Z,1192.50
2019-04-11T08:05:19.261Z,1170.00
2019-04-11T08:06:19.810Z,1170.00
2019-04-11T08:07:19.863Z,1158.75
2019-04-11T08:08:18.788Z,1158.75
2019-04-11T08:09:18.765Z,1164.38
2019-04-11T08:10:18.679Z,1153.13
2019-04-11T08:11:19.802Z,1147.50
2019-04-11T08:12:18.649Z,1141.88
2019-04-11T08:13:18.578Z,1141.88
2019-04-11T08:14:18.540Z,1147.50
2019-04-11T08:15:19.556Z,1153.13
2019-04-11T08:16:18.468Z,1158.75
2019-04-11T08:17:28.175Z,1158.75
2019-04-11T08:18:18.687Z,1158.75
2019-04-11T08:19:20.710Z,1158.75
2019-04-11T08:20:19.385Z,1158.75
2019-04-11T08:21:28.291Z,1170.00
2019-04-11T08:22:19.057Z,1175.63
2019-04-11T08:23:19.336Z,1186.88
2019-04-11T08:24:18.508Z,1186.88
2019-04-11T08:25:18.159Z,1192.50
2019-04-11T08:26:18.112Z,1192.50
2019-04-11T08:27:18.090Z,1209.38
2019-04-11T08:28:18.501Z,1220.63
2019-04-11T08:29:18.053Z,1220.63
2019-04-11T08:30:19.030Z,1231.88
2019-04-11T08:31:17.974Z,1243.13
2019-04-11T08:32:17.957Z,1248.75
2019-04-11T08:33:18.350Z,1265.63
2019-04-11T08:34:17.886Z,1282.50
2019-04-11T08:35:17.816Z,1282.50
2019-04-11T08:36:17.825Z,1293.75
2019-04-11T08:37:17.786Z,1310.63
2019-04-11T08:38:18.540Z,1327.50
2019-04-11T08:39:17.685Z,1327.50
2019-04-11T08:40:17.760Z,1350.00
2019-04-11T08:41:17.688Z,1366.88
2019-04-11T08:42:17.570Z,1383.75
2019-04-11T08:43:17.609Z,1406.25
2019-04-11T08:44:17.558Z,1434.38
2019-04-11T08:45:17.596Z,1462.50
2019-04-11T08:46:18.465Z,1490.63
2019-04-11T08:47:18.308Z,1535.63
2019-04-11T08:48:17.378Z,1586.25
2019-04-11T08:49:17.391Z,1665.00
2019-04-11T08:50:18.507Z,1749.38
2019-04-11T08:51:17.273Z,1918.13
2019-04-11T08:52:17.997Z,2255.63
2019-04-11T08:53:18.464Z,2497.50
2019-04-11T08:54:17.470Z,2626.88
2019-04-11T08:55:17.287Z,2649.38
2019-04-11T08:56:17.104Z,2677.50
2019-04-11T08:57:17.885Z,2857.50
2019-04-11T08:58:17.201Z,2998.13
2019-04-11T08:59:17.296Z,3093.75
2019-04-11T09:00:17.768Z,3318.75
2019-04-11T09:01:17.968Z,3358.13
2019-04-11T09:02:16.934Z,3240.00
2019-04-11T09:03:17.710Z,3251.25
2019-04-11T09:04:16.852Z,3251.25
2019-04-11T09:05:19.550Z,3380.63
2019-04-11T09:06:16.769Z,3661.88
2019-04-11T09:07:17.065Z,3487.50
2019-04-11T09:08:16.728Z,3605.63
2019-04-11T09:09:16.673Z,3667.50
2019-04-11T09:10:17.835Z,3571.88
2019-04-11T09:11:16.992Z,3656.25
2019-04-11T09:12:16.563Z,3701.25
2019-04-11T09:13:17.406Z,3560.63
2019-04-11T09:14:16.729Z,3639.38
2019-04-11T09:15:16.939Z,3740.63
2019-04-11T09:16:17.247Z,3628.13
2019-04-11T09:17:16.549Z,3363.75
2019-04-11T09:18:17.667Z,3560.63
2019-04-11T09:19:16.777Z,2739.38
2019-04-11T09:20:16.305Z,3763.13
2019-04-11T09:21:16.251Z,3830.63
2019-04-11T09:22:17.110Z,3813.75
2019-04-11T09:23:16.226Z,3768.75
2019-04-11T09:24:16.721Z,3723.75
2019-04-11T09:25:16.153Z,3521.25
2019-04-11T09:26:16.079Z,3684.38
2019-04-11T09:27:16.252Z,3785.63
2019-04-11T09:28:16.026Z,3853.13
2019-04-11T09:29:15.974Z,3870.00
2019-04-11T09:30:17.174Z,3847.50
2019-04-11T09:31:16.954Z,3757.50
2019-04-11T09:32:16.021Z,3628.13
2019-04-11T09:33:17.107Z,3571.88
2019-04-11T09:34:15.816Z,1417.50
2019-04-11T09:35:16.471Z,3560.63
2019-04-11T09:36:15.767Z,3740.63
2019-04-11T09:37:17.659Z,3611.25
2019-04-11T09:38:15.997Z,3600.00
2019-04-11T09:39:15.705Z,3661.88
2019-04-11T09:40:15.691Z,3723.75
2019-04-11T09:41:16.442Z,3763.13
2019-04-11T09:42:16.832Z,3318.75
2019-04-11T09:43:15.825Z,3555.00
2019-04-11T09:44:15.518Z,3706.88
2019-04-11T09:45:15.468Z,3825.00
2019-04-11T09:46:16.387Z,3763.13
2019-04-11T09:47:15.604Z,3678.75
2019-04-11T09:48:18.267Z,3780.00
2019-04-11T09:49:15.323Z,3875.63
2019-04-11T09:50:16.039Z,3780.00
2019-04-11T09:51:15.626Z,3735.00
2019-04-11T09:52:16.228Z,3605.63
2019-04-11T09:53:16.267Z,3622.50
2019-04-11T09:54:15.592Z,3785.63
2019-04-11T09:55:15.128Z,3813.75
2019-04-11T09:56:15.194Z,3678.75
2019-04-11T09:57:16.272Z,3493.13
2019-04-11T09:58:15.272Z,3453.75
2019-04-11T09:59:15.002Z,3611.25
2019-04-11T10:00:14.959Z,3645.00
2019-04-11T10:01:15.969Z,3600.00
2019-04-11T10:02:14.878Z,3633.75
2019-04-11T10:03:15.344Z,3729.38
2019-04-11T10:04:14.820Z,3774.38
2019-04-11T10:05:15.883Z,3706.88
2019-04-11T10:06:15.887Z,3780.00
2019-04-11T10:07:14.713Z,3740.63
2019-04-11T10:08:14.882Z,3650.63
2019-04-11T10:09:15.631Z,3566.25
2019-04-11T10:10:14.904Z,3633.75
2019-04-11T10:11:15.563Z,3633.75
2019-04-11T10:12:15.806Z,3667.50
2019-04-11T10:13:14.557Z,3645.00
2019-04-11T10:14:15.551Z,3735.00
2019-04-11T10:15:15.456Z,3712.50
2019-04-11T10:16:14.434Z,3729.38
2019-04-11T10:17:14.881Z,3611.25
2019-04-11T10:18:22.872Z,3436.88
2019-04-11T10:19:14.343Z,1029.38
2019-04-11T10:20:14.285Z,3076.88
2019-04-11T10:21:15.201Z,1800.00
2019-04-11T10:22:15.111Z,2638.13
2019-04-11T10:23:14.335Z,1085.63
2019-04-11T10:24:16.644Z,2694.38
2019-04-11T10:25:14.819Z,3633.75
2019-04-11T10:26:14.082Z,3763.13
2019-04-11T10:27:14.327Z,3633.75
2019-04-11T10:28:15.168Z,3729.38
2019-04-11T10:29:14.908Z,3785.63
2019-04-11T10:30:15.182Z,3622.50
2019-04-11T10:31:14.691Z,3639.38
2019-04-11T10:32:14.900Z,3785.63
2019-04-11T10:33:14.926Z,3870.00
2019-04-11T10:34:13.805Z,3560.63
2019-04-11T10:35:14.599Z,3616.88
2019-04-11T10:36:14.652Z,3729.38
2019-04-11T10:37:13.785Z,3706.88
2019-04-11T10:38:14.029Z,3650.63
2019-04-11T10:39:13.651Z,3661.88
2019-04-11T10:40:13.613Z,3706.88
2019-04-11T10:41:14.675Z,3785.63
2019-04-11T10:42:14.673Z,3830.63
2019-04-11T10:43:13.533Z,1771.88
2019-04-11T10:44:13.947Z,1406.25
2019-04-11T10:45:14.200Z,3915.00
2019-04-11T10:46:13.407Z,3740.63
2019-04-11T10:47:14.415Z,3802.50
2019-04-11T10:48:13.898Z,3493.13
2019-04-11T10:49:13.624Z,3605.63
2019-04-11T10:50:13.270Z,3510.00
2019-04-11T10:51:13.239Z,2835.00
2019-04-11T10:52:14.088Z,1310.63
2019-04-11T10:53:13.189Z,3898.13
2019-04-11T10:54:13.532Z,3903.75
2019-04-11T10:55:13.608Z,3757.50
2019-04-11T10:56:13.920Z,3645.00
2019-04-11T10:57:13.895Z,3751.88
2019-04-11T10:58:13.025Z,3836.25
2019-04-11T10:59:13.310Z,3706.88
2019-04-11T11:00:14.128Z,3611.25
2019-04-11T11:01:12.891Z,3661.88
2019-04-11T11:02:12.856Z,3712.50
2019-04-11T11:03:13.794Z,3633.75
2019-04-11T11:04:13.768Z,3751.88
2019-04-11T11:05:12.842Z,3712.50
2019-04-11T11:06:13.597Z,3768.75
2019-04-11T11:07:12.983Z,1130.63
2019-04-11T11:08:13.202Z,1906.88
2019-04-11T11:09:12.631Z,3341.25
2019-04-11T11:10:12.627Z,3673.13
2019-04-11T11:11:14.773Z,3470.63
2019-04-11T11:12:12.789Z,3751.88
2019-04-11T11:13:12.497Z,3296.25
2019-04-11T11:14:12.456Z,3172.50
2019-04-11T11:15:13.599Z,3009.38
2019-04-11T11:16:12.390Z,2835.00
2019-04-11T11:17:15.548Z,3127.50
2019-04-11T11:18:53.983Z,3526.88
2019-04-11T11:19:34.941Z,3611.25
2019-04-11T11:20:22.297Z,3639.38
2019-04-11T11:21:13.276Z,3639.38
2019-04-11T11:22:12.550Z,3605.63
2019-04-11T11:23:13.046Z,3701.25
2019-04-11T11:24:12.408Z,3920.63
2019-04-11T11:25:14.155Z,2131.88
2019-04-11T11:26:12.646Z,1243.13
2019-04-11T11:27:12.026Z,1198.13
2019-04-11T11:28:12.036Z,1181.25
2019-04-11T11:29:15.247Z,3116.25
2019-04-11T11:30:12.735Z,3740.63
2019-04-11T11:31:11.947Z,3324.38
2019-04-11T11:32:13.240Z,1479.38
2019-04-11T11:33:11.817Z,3375.00
2019-04-11T11:34:16.109Z,3442.50
2019-04-11T11:35:12.631Z,3341.25
2019-04-11T11:36:12.980Z,3408.75
2019-04-11T11:37:13.143Z,3425.63
2019-04-11T11:38:11.677Z,3453.75
2019-04-11T11:39:11.623Z,3358.13
2019-04-11T11:40:14.911Z,3380.63
2019-04-11T11:41:12.196Z,3521.25
2019-04-11T11:42:12.362Z,2565.00
2019-04-11T11:43:11.629Z,3493.13
2019-04-11T11:44:11.766Z,3470.63
2019-04-11T11:45:11.412Z,3341.25
2019-04-11T11:46:12.195Z,3453.75
2019-04-11T11:47:11.950Z,3504.38
2019-04-11T11:48:15.897Z,3515.63
2019-04-11T11:49:12.202Z,3481.88
2019-04-11T11:50:16.443Z,3543.75
2019-04-11T11:51:11.219Z,3611.25
2019-04-11T11:52:11.405Z,3515.63
2019-04-11T11:53:13.201Z,3442.50
2019-04-11T11:54:11.541Z,3436.88
2019-04-11T11:55:12.346Z,3448.13
2019-04-11T11:56:11.075Z,3487.50
2019-04-11T11:57:11.004Z,3403.13
2019-04-11T11:58:14.330Z,3335.63
2019-04-11T11:59:11.252Z,3256.88
2019-04-11T12:00:10.927Z,3330.00
2019-04-11T12:01:11.695Z,3386.25
2019-04-11T12:02:10.835Z,1198.13
2019-04-11T12:03:10.826Z,1288.13
2019-04-11T12:04:10.812Z,3391.88
2019-04-11T12:05:14.848Z,3335.63
2019-04-11T12:06:10.713Z,3431.25
2019-04-11T12:07:10.669Z,3493.13
2019-04-11T12:08:13.626Z,3307.50
2019-04-11T12:09:10.628Z,3313.13
2019-04-11T12:10:11.273Z,3346.88
2019-04-11T12:11:10.561Z,3296.25
2019-04-11T12:12:11.400Z,3262.50
2019-04-11T12:13:12.821Z,3245.63
2019-04-11T12:14:11.609Z,3256.88
2019-04-11T12:15:14.191Z,3195.00
2019-04-11T12:16:10.365Z,3144.38
2019-04-11T12:17:10.361Z,3223.13
2019-04-11T12:18:11.020Z,3245.63
2019-04-11T12:19:10.899Z,3228.75
2019-04-11T12:20:14.194Z,3363.75
2019-04-11T12:21:11.412Z,3408.75
2019-04-11T12:22:10.497Z,3290.63
2019-04-11T12:23:10.147Z,3133.13
2019-04-11T12:24:11.355Z,3105.00
2019-04-11T12:25:10.089Z,3195.00
2019-04-11T12:26:12.465Z,3273.75
2019-04-11T12:27:11.171Z,3228.75
2019-04-11T12:28:14.650Z,3161.25
2019-04-11T12:29:10.251Z,3088.13
2019-04-11T12:30:10.916Z,3155.63
2019-04-11T12:31:09.871Z,1164.38
2019-04-11T12:32:10.351Z,3183.75
2019-04-11T12:33:10.783Z,3301.88
2019-04-11T12:34:10.260Z,3217.50
2019-04-11T12:35:09.755Z,1991.25
2019-04-11T12:36:09.898Z,990.00
2019-04-11T12:37:10.579Z,967.50
2019-04-11T12:38:09.635Z,2728.13
2019-04-11T12:39:09.600Z,1693.13
2019-04-11T12:40:09.766Z,2160.00